Bookmark and Share
Track history (hours):
 

E.r. Bern

Last reported at 2014-Apr-10 15:08 UTC. Time now 2014-Apr-18 00:29 UTC.
Position N 45°08' E 036°34'.

Length 187 m; draft 6.7 m.

Type: Cargo ship. MMSI: 636092150.

NotesDate/timePositionNaut miles runAvg speedWind from/ knotsBaromVisibWave heightAir tempDewpointWater temp
2014-Apr-10 15:08N 45°08' E 036°34'0 0.0
2014-Apr-10 14:32N 45°08' E 036°34'0 0.0
2014-Apr-10 13:29N 45°08' E 036°34'  
2014-Apr-07 07:20N 44°49' E 036°32'912.2
2014-Apr-07 06:33N 44°40' E 036°32'1110.8
2014-Apr-07 05:33N 44°31' E 036°24'1212.4
2014-Apr-07 04:33N 44°24' E 036°09'1212.0
2014-Apr-07 03:33N 44°18' E 035°55'1211.6
2014-Apr-07 02:34N 44°12' E 035°41'1211.6
2014-Apr-07 01:34N 44°06' E 035°27'1211.7
2014-Apr-07 00:33N 43°60' E 035°14'1211.9
2014-Apr-06 23:34N 43°53' E 034°60'1211.9
2014-Apr-06 22:34N 43°47' E 034°45'1211.7
2014-Apr-06 21:34N 43°41' E 034°32'1211.5
2014-Apr-06 20:33N 43°35' E 034°18'239 9.5
2014-Apr-05 19:18N 41°29' E 029°42'912.8
2014-Apr-05 18:33N 41°25' E 029°31'1212.2
2014-Apr-05 17:34N 41°18' E 029°17'186 7.7
2014-Apr-04 17:21N 39°45' E 025°46'2312.9
2014-Apr-04 15:33N 39°24' E 025°34'1313.0
2014-Apr-04 14:33N 39°12' E 025°26'46 3.8
2014-Apr-04 02:33N 38°28' E 025°44'1313.1
2014-Apr-04 01:33N 38°15' E 025°45'1313.2
2014-Apr-04 00:33N 38°02' E 025°45'1312.6
2014-Apr-03 23:31N 37°49' E 025°46'1312.8
2014-Apr-03 22:31N 37°36' E 025°46'1111.3
2014-Apr-03 21:33N 37°27' E 025°53'1212.2
2014-Apr-03 20:33N 37°20' E 026°05'1211.8
2014-Apr-03 19:33N 37°13' E 026°17'1212.2
2014-Apr-03 18:33N 37°06' E 026°30'1211.7
2014-Apr-03 17:32N 36°58' E 026°41'1212.1
2014-Apr-03 16:33N 36°46' E 026°44'1212.2
2014-Apr-03 15:33N 36°34' E 026°47'1211.8
2014-Apr-03 14:33N 36°25' E 026°56'1212.2
2014-Apr-03 13:33N 36°17' E 027°08'1712.2
2014-Apr-03 12:12N 36°05' E 027°22'811.7
2014-Apr-03 11:33N 35°60' E 027°29'1111.3
2014-Apr-03 10:33N 35°52' E 027°39'1110.9
2014-Apr-03 09:33N 35°47' E 027°51'1212.0
2014-Apr-03 08:33N 35°47' E 028°06'2412.1
2014-Apr-03 06:33N 35°47' E 028°35'19312.5
2014-Apr-02 15:03N 35°50' E 032°34'  

Dump ship's entire track history

sailing weather and tide predictions

E.r. Bern — A8XQ5 — position and weather